Terminal Aerodrome Forecast
Issued by NWS

Home | Current Version | Previous Version | Graphics & Text | Print | Product List | Glossary Off
Versions: 1 2 3 4 5 6 7 8 9 10 11 12 13 14 15 16 17

000
FTUS43 KICT 291737
TAFSLN
TAF
KSLN 291737Z 2918/3018 26005KT P6SM SCT050 BKN150
     FM300000 30011KT P6SM VCTS SCT030CB BKN060CB
     FM300200 35015G22KT P6SM VCTS SCT020 BKN035CB
     FM300500 35015G22KT P6SM SCT020 BKN035=

USA.gov is the U.S. government's official web portal to all federal, state and local government web resources and services.